createdAt,value
2023-06-23T00:01:56.065Z,43.28
2023-06-23T00:04:24.000Z,42.90
2023-06-23T00:06:51.967Z,44.67
2023-06-23T00:09:19.786Z,43.53
2023-06-23T00:11:47.605Z,44.97
2023-06-23T00:14:15.518Z,45.35
2023-06-23T00:16:43.619Z,43.28
2023-06-23T00:19:12.831Z,43.28
2023-06-23T00:21:40.615Z,44.47
2023-06-23T00:24:08.496Z,43.85
2023-06-23T00:26:36.357Z,43.10
2023-06-23T00:29:06.312Z,44.33
2023-06-23T00:31:35.209Z,42.30
2023-06-23T00:34:03.002Z,43.65
2023-06-23T00:36:31.922Z,41.90
2023-06-23T00:39:03.485Z,41.05
2023-06-23T00:41:31.438Z,40.38
2023-06-23T00:44:00.483Z,40.00
2023-06-23T00:46:29.749Z,40.72
2023-06-23T00:48:57.907Z,40.78
2023-06-23T00:51:27.019Z,38.28
2023-06-23T00:53:55.609Z,37.67
2023-06-23T00:56:25.559Z,38.50
2023-06-23T00:58:55.281Z,38.70
2023-06-23T01:01:23.327Z,37.80
2023-06-23T01:03:51.152Z,38.70
2023-06-23T01:06:47.716Z,36.67
2023-06-23T01:09:40.813Z,37.72
2023-06-23T01:12:18.115Z,37.85
2023-06-23T01:15:23.554Z,36.47
2023-06-23T01:18:06.332Z,37.20
2023-06-23T01:20:40.234Z,39.17
2023-06-23T01:23:46.795Z,39.75
2023-06-23T01:26:51.270Z,39.65
2023-06-23T01:29:32.241Z,38.97
2023-06-23T01:32:22.018Z,39.17
2023-06-23T01:34:54.038Z,39.28
2023-06-23T01:37:30.404Z,37.00
2023-06-23T01:40:07.606Z,38.20
2023-06-23T01:42:40.318Z,37.53
2023-06-23T01:45:10.939Z,39.30
2023-06-23T01:47:43.025Z,37.92
2023-06-23T01:50:13.638Z,37.53
2023-06-23T01:52:42.568Z,38.58
2023-06-23T01:55:12.194Z,39.10
2023-06-23T01:57:42.392Z,38.45
2023-06-23T02:00:16.563Z,37.75
2023-06-23T02:02:47.355Z,37.13
2023-06-23T02:05:18.613Z,37.88
2023-06-23T02:07:49.217Z,37.20
2023-06-23T02:10:22.239Z,37.20
2023-06-23T02:12:50.852Z,36.28
2023-06-23T02:15:21.183Z,37.15
2023-06-23T02:17:51.672Z,35.85
2023-06-23T02:20:24.554Z,37.10
2023-06-23T02:22:53.639Z,38.47
2023-06-23T02:25:23.292Z,37.50
2023-06-23T02:27:52.411Z,38.25
2023-06-23T02:30:21.337Z,37.65
2023-06-23T02:32:49.690Z,36.92
2023-06-23T02:35:18.242Z,35.65
2023-06-23T02:38:00.618Z,36.08
2023-06-23T02:40:32.630Z,36.17
2023-06-23T02:43:36.756Z,37.03
2023-06-23T02:46:07.399Z,38.80
2023-06-23T02:48:40.949Z,37.35
2023-06-23T02:51:14.672Z,37.38
2023-06-23T02:53:49.901Z,37.72
2023-06-23T02:56:23.141Z,38.28
2023-06-23T02:58:58.910Z,38.28
2023-06-23T03:01:29.565Z,38.33
2023-06-23T03:03:58.106Z,38.75
2023-06-23T03:06:25.939Z,38.45
2023-06-23T03:08:54.295Z,38.67
2023-06-23T03:11:22.467Z,38.70
2023-06-23T03:13:50.693Z,37.20
2023-06-23T03:16:33.478Z,37.85
2023-06-23T03:19:46.063Z,37.42
2023-06-23T03:22:20.705Z,35.75
2023-06-23T03:24:57.650Z,35.30
2023-06-23T03:27:29.551Z,33.95
2023-06-23T03:30:06.366Z,35.45
2023-06-23T03:32:42.553Z,35.42
2023-06-23T03:35:16.817Z,34.00
2023-06-23T03:37:51.720Z,34.38
2023-06-23T03:40:23.516Z,33.10
2023-06-23T03:42:57.322Z,34.35
2023-06-23T03:45:28.711Z,34.08
2023-06-23T03:48:07.401Z,34.03
2023-06-23T03:50:37.472Z,34.42
2023-06-23T03:53:07.051Z,33.85
2023-06-23T03:55:37.563Z,33.55
2023-06-23T03:58:08.816Z,33.58
2023-06-23T04:00:39.271Z,33.95
2023-06-23T04:03:09.175Z,32.70
2023-06-23T04:05:41.135Z,33.22
2023-06-23T04:08:10.527Z,31.75
2023-06-23T04:10:39.678Z,34.10
2023-06-23T04:13:09.287Z,32.60
2023-06-23T04:15:39.979Z,32.05
2023-06-23T04:18:11.686Z,33.67
2023-06-23T04:20:42.386Z,35.50
2023-06-23T04:23:11.969Z,36.17
2023-06-23T04:25:42.098Z,36.25
2023-06-23T04:28:15.822Z,37.63
2023-06-23T04:30:44.909Z,36.60
2023-06-23T04:33:13.163Z,35.83
2023-06-23T04:35:41.462Z,35.63
2023-06-23T04:38:15.650Z,36.05
2023-06-23T04:40:58.055Z,34.45
2023-06-23T04:43:44.762Z,33.70
2023-06-23T04:46:32.966Z,34.47
2023-06-23T04:49:09.280Z,32.40
2023-06-23T04:51:44.843Z,30.67
2023-06-23T04:54:22.009Z,32.20
2023-06-23T04:56:52.977Z,30.50
2023-06-23T04:59:23.578Z,30.95
2023-06-23T05:01:51.885Z,30.15
2023-06-23T05:04:22.130Z,29.42
2023-06-23T05:06:51.594Z,30.02
2023-06-23T05:09:22.895Z,28.75
2023-06-23T05:11:54.257Z,28.67
2023-06-23T05:14:24.484Z,27.30
2023-06-23T05:16:56.713Z,28.25
2023-06-23T05:19:29.214Z,29.48
2023-06-23T05:21:59.672Z,28.58
2023-06-23T05:24:29.990Z,29.00
2023-06-23T05:27:00.889Z,29.45
2023-06-23T05:29:29.794Z,30.42
2023-06-23T05:31:58.953Z,27.85
2023-06-23T05:34:28.691Z,28.55
2023-06-23T05:36:59.796Z,27.25
2023-06-23T05:39:30.974Z,27.10
2023-06-23T05:41:58.868Z,27.98
2023-06-23T05:44:26.699Z,27.35
2023-06-23T05:46:58.651Z,27.05
2023-06-23T05:49:29.581Z,26.83
2023-06-23T05:52:03.522Z,25.27
2023-06-23T05:54:35.630Z,25.25
2023-06-23T05:57:07.924Z,28.27
2023-06-23T05:59:44.554Z,26.48
2023-06-23T06:02:25.608Z,26.58
2023-06-23T06:04:59.782Z,26.52
2023-06-23T06:07:28.902Z,27.52
2023-06-23T06:09:58.166Z,25.88
2023-06-23T06:12:27.452Z,27.17
2023-06-23T06:14:58.729Z,24.70
2023-06-23T06:17:29.221Z,24.75
2023-06-23T06:20:01.941Z,24.60
2023-06-23T06:22:35.425Z,24.20
2023-06-23T06:25:07.293Z,25.05
2023-06-23T06:27:35.668Z,26.35
2023-06-23T06:30:04.600Z,28.75
2023-06-23T06:32:38.778Z,24.77
2023-06-23T06:35:10.024Z,24.80
2023-06-23T06:37:42.995Z,26.95
2023-06-23T06:40:14.113Z,26.08
2023-06-23T06:42:48.360Z,24.20
2023-06-23T06:45:16.521Z,27.45
2023-06-23T06:47:45.868Z,27.23
2023-06-23T06:50:18.701Z,27.05
2023-06-23T06:52:48.253Z,28.45
2023-06-23T06:55:21.861Z,27.05
2023-06-23T06:57:50.241Z,28.42
2023-06-23T07:00:20.711Z,27.42
2023-06-23T07:02:49.119Z,28.65
2023-06-23T07:05:21.296Z,27.73
2023-06-23T07:07:49.115Z,28.42
2023-06-23T07:10:16.960Z,28.38
2023-06-23T07:12:44.745Z,26.83
2023-06-23T07:15:13.124Z,26.65
2023-06-23T07:17:41.157Z,24.10
2023-06-23T07:20:09.685Z,26.52
2023-06-23T07:22:37.753Z,22.77
2023-06-23T07:25:06.405Z,25.25
2023-06-23T07:27:34.183Z,23.45
2023-06-23T07:30:02.208Z,22.20
2023-06-23T07:32:33.223Z,22.63
2023-06-23T07:35:01.182Z,22.05
2023-06-23T07:37:31.505Z,22.95
2023-06-23T07:39:59.713Z,23.20
2023-06-23T07:42:30.389Z,24.10
2023-06-23T07:45:02.070Z,21.85
2023-06-23T07:47:31.570Z,20.30
2023-06-23T07:50:02.212Z,21.10
2023-06-23T07:52:30.474Z,21.63
2023-06-23T07:54:58.851Z,19.77
2023-06-23T07:57:27.196Z,19.58
2023-06-23T07:59:55.237Z,19.15
2023-06-23T08:02:23.248Z,18.50
2023-06-23T08:04:51.570Z,19.38
2023-06-23T08:07:19.457Z,17.33
2023-06-23T08:09:47.286Z,17.40
2023-06-23T08:12:15.253Z,17.10
2023-06-23T08:14:43.069Z,18.17
2023-06-23T08:17:10.920Z,16.48
2023-06-23T08:19:39.004Z,17.00
2023-06-23T08:22:07.031Z,16.77
2023-06-23T08:24:34.840Z,18.02
2023-06-23T08:27:02.939Z,17.98
2023-06-23T08:29:30.663Z,19.02
2023-06-23T08:31:58.520Z,18.50
2023-06-23T08:34:26.492Z,18.50
2023-06-23T08:36:54.946Z,18.63
2023-06-23T08:39:23.101Z,17.25
2023-06-23T08:41:52.006Z,18.40
2023-06-23T08:44:22.728Z,16.75
2023-06-23T08:47:05.838Z,15.77
2023-06-23T08:49:39.710Z,16.65
2023-06-23T08:52:08.907Z,15.77
2023-06-23T08:54:37.562Z,15.90
2023-06-23T08:57:07.234Z,15.13
2023-06-23T08:59:35.298Z,15.15
2023-06-23T09:02:04.803Z,15.55
2023-06-23T09:04:32.679Z,15.43
2023-06-23T09:07:00.472Z,16.58
2023-06-23T09:09:28.466Z,19.40
2023-06-23T09:11:56.483Z,19.23
2023-06-23T09:14:33.418Z,19.83
2023-06-23T09:17:02.426Z,18.52
2023-06-23T09:19:33.657Z,19.58
2023-06-23T09:22:02.314Z,18.73
2023-06-23T09:24:41.514Z,22.05
2023-06-23T09:27:09.364Z,20.05
2023-06-23T09:29:38.843Z,19.48
2023-06-23T09:32:10.455Z,19.40
2023-06-23T09:34:42.203Z,20.23
2023-06-23T09:37:12.849Z,21.35
2023-06-23T09:39:49.998Z,21.02
2023-06-23T09:42:18.223Z,21.17
2023-06-23T09:44:47.779Z,20.67
2023-06-23T09:47:18.247Z,19.35
2023-06-23T09:49:49.206Z,20.35
2023-06-23T09:52:25.963Z,19.65
2023-06-23T09:54:55.338Z,19.92
2023-06-23T09:57:23.099Z,18.55
2023-06-23T09:59:54.978Z,18.25
2023-06-23T10:02:34.605Z,18.35
2023-06-23T10:05:07.042Z,18.38
2023-06-23T10:07:35.768Z,17.25
2023-06-23T10:12:41.270Z,17.48
2023-06-23T10:15:11.811Z,16.63
2023-06-23T10:17:40.067Z,16.65
2023-06-23T10:20:09.179Z,15.93
2023-06-23T10:22:38.321Z,16.65
2023-06-23T10:25:10.868Z,15.85
2023-06-23T10:27:41.445Z,15.80
2023-06-23T10:30:11.974Z,14.52
2023-06-23T10:32:47.346Z,14.40
2023-06-23T10:35:19.966Z,14.40
2023-06-23T10:37:51.099Z,15.07
2023-06-23T10:40:25.231Z,15.25
2023-06-23T10:42:57.680Z,16.27
2023-06-23T10:45:26.279Z,16.00
2023-06-23T10:47:54.699Z,17.13
2023-06-23T10:50:31.128Z,18.63
2023-06-23T10:53:16.844Z,20.17
2023-06-23T10:56:07.529Z,19.13
2023-06-23T10:58:54.013Z,20.50
2023-06-23T11:01:22.125Z,18.33
2023-06-23T11:03:58.056Z,19.38
2023-06-23T11:06:35.944Z,18.60
2023-06-23T11:09:04.081Z,18.83
2023-06-23T11:11:35.809Z,18.55
2023-06-23T11:14:03.618Z,18.83
2023-06-23T11:16:36.017Z,18.63
2023-06-23T11:19:05.034Z,18.88
2023-06-23T11:21:38.544Z,19.40
2023-06-23T11:24:18.430Z,17.90
2023-06-23T11:27:01.230Z,19.25
2023-06-23T11:29:29.519Z,19.90
2023-06-23T11:32:12.998Z,20.80
2023-06-23T11:34:51.568Z,20.45
2023-06-23T11:37:21.853Z,20.98
2023-06-23T11:39:53.811Z,19.42
2023-06-23T11:42:24.277Z,20.63
2023-06-23T11:44:57.170Z,21.45
2023-06-23T11:47:31.817Z,20.60
2023-06-23T11:50:04.200Z,20.92
2023-06-23T11:52:32.582Z,20.08
2023-06-23T11:55:00.937Z,20.50
2023-06-23T11:57:29.515Z,20.40
2023-06-23T11:59:57.557Z,19.23
2023-06-23T12:02:25.412Z,20.35
2023-06-23T12:04:53.412Z,19.90
2023-06-23T12:07:26.345Z,19.80
2023-06-23T12:09:54.139Z,20.92
2023-06-23T12:12:21.976Z,19.67
2023-06-23T12:14:50.347Z,21.05
2023-06-23T12:17:18.154Z,21.92
2023-06-23T12:19:46.166Z,26.02
2023-06-23T12:22:18.679Z,21.95
2023-06-23T12:24:48.818Z,24.38
2023-06-23T12:27:16.665Z,28.38
2023-06-23T12:29:44.589Z,27.33
2023-06-23T12:32:12.596Z,29.67
2023-06-23T12:34:49.894Z,32.67
2023-06-23T12:37:22.221Z,34.15
2023-06-23T12:39:54.851Z,40.90
2023-06-23T12:42:24.168Z,41.30
2023-06-23T12:44:52.623Z,41.00
2023-06-23T12:47:21.788Z,39.47
2023-06-23T12:49:52.284Z,40.60
2023-06-23T12:52:20.168Z,40.15
2023-06-23T12:54:48.484Z,44.00
2023-06-23T12:57:20.510Z,40.03
2023-06-23T12:59:48.574Z,41.25
2023-06-23T13:02:20.663Z,39.22
2023-06-23T13:04:51.223Z,44.20
2023-06-23T13:07:25.614Z,40.47
2023-06-23T13:09:53.561Z,42.15
2023-06-23T13:12:26.764Z,49.33
2023-06-23T13:15:00.006Z,39.25
2023-06-23T13:17:28.119Z,39.85
2023-06-23T13:19:56.097Z,40.17
2023-06-23T13:22:24.178Z,38.08
2023-06-23T13:24:57.688Z,40.13
2023-06-23T13:27:26.282Z,41.65
2023-06-23T13:29:54.129Z,40.45
2023-06-23T13:32:22.584Z,37.80
2023-06-23T13:34:50.410Z,37.95
2023-06-23T13:37:18.886Z,35.50
2023-06-23T13:39:46.896Z,34.22
2023-06-23T13:42:14.839Z,31.23
2023-06-23T13:44:42.928Z,31.33
2023-06-23T13:47:10.902Z,31.27
2023-06-23T13:49:38.719Z,30.13
2023-06-23T13:52:08.488Z,29.13
2023-06-23T13:54:36.754Z,30.70
2023-06-23T13:57:05.089Z,29.38
2023-06-23T13:59:33.341Z,29.52
2023-06-23T14:02:01.410Z,30.77
2023-06-23T14:04:29.201Z,29.50
2023-06-23T14:06:57.194Z,27.88
2023-06-23T14:09:26.989Z,30.02
2023-06-23T14:11:54.950Z,27.40
2023-06-23T14:14:22.814Z,28.48
2023-06-23T14:16:50.742Z,29.30
2023-06-23T14:19:18.625Z,27.95
2023-06-23T14:21:46.597Z,29.95
2023-06-23T14:24:14.649Z,27.98
2023-06-23T14:26:55.442Z,26.95
2023-06-23T14:29:23.343Z,27.83
2023-06-23T14:31:53.180Z,28.88
2023-06-23T14:34:21.294Z,27.33
2023-06-23T14:36:50.499Z,28.52
2023-06-23T14:39:19.096Z,27.27
2023-06-23T14:41:47.118Z,27.30
2023-06-23T14:44:16.278Z,27.20
2023-06-23T14:46:44.258Z,27.75
2023-06-23T14:49:12.047Z,29.17
2023-06-23T14:51:40.048Z,30.88
2023-06-23T14:54:08.057Z,28.27
2023-06-23T14:56:37.036Z,28.80
2023-06-23T14:59:04.986Z,29.08
2023-06-23T15:01:33.079Z,28.45
2023-06-23T15:04:01.121Z,29.50
2023-06-23T15:06:29.301Z,29.52
2023-06-23T15:08:58.497Z,32.97
2023-06-23T15:11:26.669Z,32.13
2023-06-23T15:13:54.531Z,34.67
2023-06-23T15:16:22.514Z,35.35
2023-06-23T15:18:50.364Z,33.15
2023-06-23T15:21:19.619Z,33.28
2023-06-23T15:23:48.731Z,33.90
2023-06-23T15:26:18.102Z,34.10
2023-06-23T15:28:46.527Z,34.88
2023-06-23T15:31:14.725Z,35.05
2023-06-23T15:33:45.920Z,35.22
2023-06-23T15:36:13.999Z,37.30
2023-06-23T15:38:42.029Z,35.45
2023-06-23T15:41:10.413Z,34.10
2023-06-23T15:43:38.619Z,33.45
2023-06-23T15:46:06.659Z,34.17
2023-06-23T15:48:34.979Z,32.97
2023-06-23T15:51:03.235Z,32.47
2023-06-23T15:53:31.219Z,31.17
2023-06-23T15:55:59.271Z,31.33
2023-06-23T15:58:27.220Z,31.58
2023-06-23T16:00:55.303Z,30.98
2023-06-23T16:03:23.748Z,30.38
2023-06-23T16:06:00.389Z,30.02
2023-06-23T16:08:28.404Z,29.83
2023-06-23T16:10:56.337Z,29.70
2023-06-23T16:13:24.263Z,28.77
2023-06-23T16:15:52.200Z,28.73
2023-06-23T16:18:20.498Z,29.00
2023-06-23T16:20:48.637Z,29.05
2023-06-23T16:23:16.391Z,28.65
2023-06-23T16:25:44.297Z,28.52
2023-06-23T16:28:12.274Z,29.85
2023-06-23T16:30:40.086Z,31.63
2023-06-23T16:33:08.101Z,30.05
2023-06-23T16:35:36.558Z,30.77
2023-06-23T16:38:04.556Z,29.60
2023-06-23T16:40:32.716Z,29.52
2023-06-23T16:43:05.282Z,32.00
2023-06-23T16:45:33.469Z,31.08
2023-06-23T16:48:01.499Z,29.25
2023-06-23T16:50:29.414Z,29.50
2023-06-23T16:53:00.050Z,28.80
2023-06-23T16:55:28.032Z,27.63
2023-06-23T16:57:56.087Z,29.02
2023-06-23T17:00:24.086Z,29.40
2023-06-23T17:02:51.989Z,29.40
2023-06-23T17:05:19.910Z,29.92
2023-06-23T17:07:47.759Z,28.83
2023-06-23T17:10:15.656Z,29.58
2023-06-23T17:12:43.562Z,29.63
2023-06-23T17:15:11.899Z,29.60
2023-06-23T17:17:39.741Z,29.98
2023-06-23T17:20:09.019Z,30.88
2023-06-23T17:22:37.097Z,33.08
2023-06-23T17:25:06.082Z,32.70
2023-06-23T17:27:34.008Z,32.92
2023-06-23T17:30:02.857Z,32.10
2023-06-23T17:32:34.198Z,31.90
2023-06-23T17:35:02.341Z,32.28
2023-06-23T17:37:35.975Z,33.65
2023-06-23T17:40:03.933Z,32.88
2023-06-23T17:42:31.849Z,32.33
2023-06-23T17:44:59.666Z,31.92
2023-06-23T17:47:30.898Z,31.58
2023-06-23T17:49:58.910Z,32.20
2023-06-23T17:52:28.536Z,30.05
2023-06-23T17:54:58.339Z,31.63
2023-06-23T17:57:26.147Z,32.10
2023-06-23T17:59:54.139Z,31.15
2023-06-23T18:02:22.203Z,31.08
2023-06-23T18:04:50.256Z,32.28
2023-06-23T18:07:18.671Z,33.03
2023-06-23T18:09:48.435Z,31.25
2023-06-23T18:12:16.443Z,31.52
2023-06-23T18:14:46.890Z,31.50
2023-06-23T18:17:17.346Z,31.15
2023-06-23T18:19:45.834Z,32.95
2023-06-23T18:22:13.634Z,39.47
2023-06-23T18:24:44.474Z,33.28
2023-06-23T18:27:12.477Z,33.83
2023-06-23T18:29:40.219Z,32.97
2023-06-23T18:32:35.096Z,31.33
2023-06-23T18:35:03.138Z,31.02
2023-06-23T18:37:32.080Z,32.50
2023-06-23T18:40:00.577Z,32.22
2023-06-23T18:42:28.951Z,32.08
2023-06-23T18:44:56.925Z,32.45
2023-06-23T18:47:25.215Z,30.70
2023-06-23T18:49:53.465Z,30.08
2023-06-23T18:52:21.680Z,28.60
2023-06-23T18:54:49.568Z,28.88
2023-06-23T18:57:17.438Z,27.08
2023-06-23T18:59:45.444Z,27.00
2023-06-23T19:02:14.057Z,27.77
2023-06-23T19:04:44.119Z,25.65
2023-06-23T19:07:12.010Z,26.63
2023-06-23T19:09:41.004Z,27.85
2023-06-23T19:12:10.124Z,27.08
2023-06-23T19:14:39.609Z,26.98
2023-06-23T19:17:09.133Z,26.92
2023-06-23T19:19:41.380Z,27.48
2023-06-23T19:22:10.423Z,26.58
2023-06-23T19:24:39.222Z,27.25
2023-06-23T19:27:08.426Z,25.95
2023-06-23T19:29:36.942Z,28.88
2023-06-23T19:32:05.373Z,27.92
2023-06-23T19:34:35.424Z,28.77
2023-06-23T19:37:03.459Z,28.00
2023-06-23T19:39:35.349Z,27.88
2023-06-23T19:42:07.261Z,28.25
2023-06-23T19:44:36.825Z,27.25
2023-06-23T19:47:05.133Z,27.05
2023-06-23T19:49:33.222Z,27.90
2023-06-23T19:52:08.718Z,28.67
2023-06-23T19:54:37.202Z,28.38
2023-06-23T19:57:05.664Z,28.63
2023-06-23T19:59:33.733Z,29.63
2023-06-23T20:02:07.796Z,28.65
2023-06-23T20:04:37.634Z,28.52
2023-06-23T20:07:09.492Z,29.48
2023-06-23T20:09:37.479Z,28.58
2023-06-23T20:12:05.925Z,29.33
2023-06-23T20:14:33.842Z,29.85
2023-06-23T20:17:01.834Z,29.75
2023-06-23T20:19:29.850Z,30.90
2023-06-23T20:21:57.807Z,31.75
2023-06-23T20:24:25.621Z,32.55
2023-06-23T20:26:59.578Z,34.95
2023-06-23T20:29:27.439Z,35.47
2023-06-23T20:31:55.716Z,33.53
2023-06-23T20:34:23.719Z,40.08
2023-06-23T20:36:51.968Z,40.10
2023-06-23T20:39:21.139Z,45.13
2023-06-23T20:41:49.369Z,40.83
2023-06-23T20:44:17.518Z,41.17
2023-06-23T20:46:45.582Z,39.85
2023-06-23T20:49:13.668Z,46.17
2023-06-23T20:51:45.409Z,44.22
2023-06-23T20:54:13.908Z,43.33
2023-06-23T20:56:41.953Z,45.50
2023-06-23T20:59:10.264Z,46.80
2023-06-23T21:01:40.908Z,42.10
2023-06-23T21:04:12.287Z,44.22
2023-06-23T21:06:40.403Z,43.00
2023-06-23T21:09:11.526Z,46.08
2023-06-23T21:11:39.345Z,49.15
2023-06-23T21:14:07.216Z,43.47
2023-06-23T21:16:34.999Z,46.92
2023-06-23T21:19:03.129Z,39.70
2023-06-23T21:21:30.941Z,44.22
2023-06-23T21:24:01.789Z,43.28
2023-06-23T21:26:29.751Z,41.60
2023-06-23T21:28:57.779Z,44.60
2023-06-23T21:31:25.877Z,42.88
2023-06-23T21:33:53.731Z,54.10
2023-06-23T21:36:21.803Z,48.00
2023-06-23T21:38:49.666Z,50.65
2023-06-23T21:41:17.602Z,55.40
2023-06-23T21:43:45.373Z,62.83
2023-06-23T21:46:15.930Z,64.32
2023-06-23T21:48:43.951Z,57.72
2023-06-23T21:51:12.283Z,60.22
2023-06-23T21:53:40.121Z,55.67
2023-06-23T21:56:07.845Z,55.05
2023-06-23T21:58:40.526Z,56.15
2023-06-23T22:01:10.137Z,53.38
2023-06-23T22:03:38.902Z,53.58
2023-06-23T22:06:06.979Z,51.55
2023-06-23T22:08:34.906Z,59.10
2023-06-23T22:11:02.658Z,53.95
2023-06-23T22:13:30.513Z,60.30
2023-06-23T22:15:58.414Z,58.80
2023-06-23T22:20:57.929Z,54.22
2023-06-23T22:23:25.688Z,61.60
2023-06-23T22:25:53.858Z,59.72
2023-06-23T22:28:21.796Z,65.07
2023-06-23T22:30:50.263Z,62.22
2023-06-23T22:33:18.255Z,63.35
2023-06-23T22:35:46.910Z,60.78
2023-06-23T22:38:15.126Z,62.40
2023-06-23T22:40:42.887Z,59.30
2023-06-23T22:43:12.661Z,56.83
2023-06-23T22:45:40.441Z,63.42
2023-06-23T22:48:10.579Z,56.55
2023-06-23T22:50:38.342Z,65.47
2023-06-23T22:53:06.257Z,58.55
2023-06-23T22:55:34.060Z,60.17
2023-06-23T22:58:02.052Z,56.15
2023-06-23T23:00:32.538Z,62.75
2023-06-23T23:03:01.038Z,57.38
2023-06-23T23:05:29.258Z,60.53
2023-06-23T23:08:00.656Z,59.80
2023-06-23T23:10:29.617Z,59.75
2023-06-23T23:12:58.252Z,55.67
2023-06-23T23:15:26.242Z,52.78
2023-06-23T23:17:54.225Z,58.75
2023-06-23T23:20:22.293Z,54.35
2023-06-23T23:22:50.849Z,54.42
2023-06-23T23:25:22.039Z,57.65
2023-06-23T23:27:53.977Z,51.10
2023-06-23T23:30:22.273Z,53.58
2023-06-23T23:32:50.379Z,61.22
2023-06-23T23:35:18.217Z,55.95
2023-06-23T23:37:46.287Z,58.92
2023-06-23T23:40:15.153Z,61.95
2023-06-23T23:42:44.629Z,58.08
2023-06-23T23:45:13.627Z,60.70
2023-06-23T23:47:46.779Z,58.42
2023-06-23T23:50:15.397Z,59.65
2023-06-23T23:52:43.121Z,58.20
2023-06-23T23:55:10.931Z,56.38
2023-06-23T23:57:38.873Z,56.55
